createdAt,value
2023-01-29T00:01:23.885Z,8.32
2023-01-29T00:06:26.213Z,10.13
2023-01-29T00:11:28.451Z,8.70
2023-01-29T00:16:30.630Z,8.65
2023-01-29T00:21:33.451Z,9.80
2023-01-29T00:26:35.586Z,7.85
2023-01-29T00:31:37.807Z,8.98
2023-01-29T00:36:44.973Z,5.82
2023-01-29T00:42:23.071Z,8.18
2023-01-29T00:47:33.602Z,8.93
2023-01-29T00:52:36.819Z,8.20
2023-01-29T00:57:39.315Z,8.07
2023-01-29T01:02:59.679Z,11.95
2023-01-29T01:08:01.687Z,11.77
2023-01-29T01:13:06.891Z,18.08
2023-01-29T01:18:08.986Z,15.65
2023-01-29T01:23:11.238Z,13.52
2023-01-29T01:28:13.683Z,10.23
2023-01-29T01:33:15.750Z,9.02
2023-01-29T01:38:17.880Z,7.55
2023-01-29T01:43:20.022Z,8.57
2023-01-29T01:48:26.703Z,8.48
2023-01-29T01:53:38.723Z,7.97
2023-01-29T01:58:45.373Z,10.30
2023-01-29T02:04:12.491Z,8.98
2023-01-29T02:09:34.743Z,9.10
2023-01-29T02:14:41.471Z,7.60
2023-01-29T02:20:11.567Z,9.38
2023-01-29T02:25:44.550Z,8.57
2023-01-29T02:30:58.439Z,8.93
2023-01-29T02:36:09.812Z,11.00
2023-01-29T02:41:31.913Z,9.48
2023-01-29T02:46:45.527Z,11.10
2023-01-29T02:51:56.012Z,10.85
2023-01-29T02:57:07.620Z,8.57
2023-01-29T03:02:16.624Z,9.45
2023-01-29T03:07:42.410Z,9.35
2023-01-29T03:13:06.403Z,7.35
2023-01-29T03:18:17.186Z,8.15
2023-01-29T03:23:46.895Z,8.55
2023-01-29T03:29:09.921Z,8.82
2023-01-29T03:34:34.616Z,8.50
2023-01-29T03:39:37.628Z,7.15
2023-01-29T03:45:08.567Z,7.32
2023-01-29T03:50:29.976Z,9.07
2023-01-29T03:55:47.175Z,7.05
2023-01-29T04:00:57.303Z,9.95
2023-01-29T04:06:09.980Z,7.85
2023-01-29T04:11:22.286Z,7.15
2023-01-29T04:16:31.931Z,8.82
2023-01-29T04:21:50.507Z,9.10
2023-01-29T04:27:05.634Z,8.00
2023-01-29T04:32:14.015Z,8.17
2023-01-29T04:37:30.523Z,11.50
2023-01-29T04:42:49.511Z,8.88
2023-01-29T04:48:32.246Z,7.47
2023-01-29T04:53:58.078Z,6.68
2023-01-29T04:59:07.559Z,8.20
2023-01-29T05:04:13.389Z,8.70
2023-01-29T05:14:21.007Z,8.10
2023-01-29T05:19:23.061Z,7.57
2023-01-29T05:24:26.806Z,9.13
2023-01-29T05:29:29.068Z,10.98
2023-01-29T05:34:31.143Z,8.20
2023-01-29T05:39:33.330Z,8.55
2023-01-29T05:44:35.368Z,7.43
2023-01-29T05:49:38.793Z,11.77
2023-01-29T05:54:40.925Z,7.63
2023-01-29T05:59:42.955Z,7.47
2023-01-29T06:04:44.999Z,8.65
2023-01-29T06:09:47.023Z,9.88
2023-01-29T06:14:49.025Z,8.65
2023-01-29T06:19:51.023Z,9.00
2023-01-29T06:24:53.046Z,11.75
2023-01-29T06:29:55.076Z,8.55
2023-01-29T06:34:57.074Z,10.10
2023-01-29T06:39:59.099Z,11.00
2023-01-29T06:45:01.113Z,9.20
2023-01-29T06:50:03.724Z,8.65
2023-01-29T06:55:06.501Z,8.45
2023-01-29T07:00:09.960Z,9.98
2023-01-29T07:05:11.960Z,11.93
2023-01-29T07:10:14.178Z,11.18
2023-01-29T07:15:20.289Z,10.90
2023-01-29T07:20:22.284Z,8.30
2023-01-29T07:25:25.726Z,8.05
2023-01-29T07:30:28.109Z,7.32
2023-01-29T07:35:30.386Z,10.18
2023-01-29T07:40:32.403Z,7.68
2023-01-29T07:45:36.390Z,7.72
2023-01-29T07:50:39.507Z,8.65
2023-01-29T07:55:44.122Z,8.00
2023-01-29T08:00:46.204Z,8.85
2023-01-29T08:05:48.809Z,10.35
2023-01-29T08:10:50.866Z,10.00
2023-01-29T08:15:52.866Z,8.02
2023-01-29T08:21:02.494Z,8.50
2023-01-29T08:26:05.031Z,8.77
2023-01-29T08:31:14.709Z,8.55
2023-01-29T08:36:16.911Z,8.13
2023-01-29T08:41:18.949Z,7.78
2023-01-29T08:46:21.063Z,8.85
2023-01-29T08:51:25.519Z,8.75
2023-01-29T08:56:27.616Z,7.65
2023-01-29T09:01:30.255Z,7.78
2023-01-29T09:06:32.308Z,7.47
2023-01-29T09:11:34.313Z,7.82
2023-01-29T09:16:36.369Z,11.95
2023-01-29T09:21:38.439Z,11.18
2023-01-29T09:26:40.544Z,13.05
2023-01-29T09:31:42.739Z,12.18
2023-01-29T09:36:44.874Z,13.70
2023-01-29T09:42:20.016Z,10.70
2023-01-29T09:47:25.064Z,12.95
2023-01-29T09:52:46.573Z,9.33
2023-01-29T09:57:50.242Z,10.23
2023-01-29T10:03:29.895Z,16.65
2023-01-29T10:09:06.636Z,15.50
2023-01-29T10:14:14.912Z,16.35
2023-01-29T10:20:01.111Z,13.63
2023-01-29T10:25:11.785Z,14.02
2023-01-29T10:30:29.091Z,14.18
2023-01-29T10:35:39.364Z,16.60
2023-01-29T10:40:51.481Z,15.85
2023-01-29T10:46:30.392Z,15.68
2023-01-29T10:52:11.283Z,14.45
2023-01-29T10:57:47.230Z,13.65
2023-01-29T11:02:50.837Z,13.48
2023-01-29T11:08:05.333Z,11.07
2023-01-29T11:13:15.049Z,11.30
2023-01-29T11:18:17.201Z,11.48
2023-01-29T11:23:28.408Z,12.82
2023-01-29T11:28:41.975Z,13.18
2023-01-29T11:33:45.385Z,12.27
2023-01-29T11:38:47.460Z,14.10
2023-01-29T11:43:49.511Z,13.25
2023-01-29T11:48:58.934Z,10.65
2023-01-29T11:54:17.238Z,11.18
2023-01-29T11:59:44.335Z,12.10
2023-01-29T12:04:47.639Z,15.40
2023-01-29T12:09:55.788Z,14.02
2023-01-29T12:15:21.453Z,14.10
2023-01-29T12:20:30.794Z,10.57
2023-01-29T12:25:47.732Z,18.35
2023-01-29T12:31:08.573Z,13.45
2023-01-29T12:36:23.767Z,13.20
2023-01-29T12:41:32.672Z,13.38
2023-01-29T12:46:46.393Z,15.20
2023-01-29T12:52:11.461Z,16.30
2023-01-29T12:57:35.174Z,14.93
2023-01-29T13:03:04.762Z,15.35
2023-01-29T13:08:30.323Z,17.23
2023-01-29T13:13:38.287Z,14.23
2023-01-29T13:18:51.100Z,13.90
2023-01-29T13:24:00.483Z,13.25
2023-01-29T13:29:05.481Z,11.00
2023-01-29T13:34:12.539Z,13.13
2023-01-29T13:39:33.763Z,14.93
2023-01-29T13:44:40.471Z,12.63
2023-01-29T13:49:46.971Z,11.68
2023-01-29T13:55:04.150Z,13.35
2023-01-29T14:00:31.088Z,16.70
2023-01-29T14:05:39.812Z,13.60
2023-01-29T14:10:43.589Z,12.73
2023-01-29T14:15:57.777Z,15.15
2023-01-29T14:21:06.673Z,13.85
2023-01-29T14:26:29.982Z,15.25
2023-01-29T14:31:49.112Z,13.40
2023-01-29T14:36:55.606Z,15.57
2023-01-29T14:41:58.476Z,17.15
2023-01-29T14:47:00.592Z,14.73
2023-01-29T14:52:03.995Z,13.57
2023-01-29T14:57:12.618Z,14.20
2023-01-29T15:02:25.218Z,17.02
2023-01-29T15:07:54.990Z,14.60
2023-01-29T15:13:29.565Z,18.52
2023-01-29T15:18:40.978Z,15.02
2023-01-29T15:23:44.587Z,14.75
2023-01-29T15:29:04.204Z,13.55
2023-01-29T15:34:07.810Z,14.70
2023-01-29T15:39:09.814Z,16.02
2023-01-29T15:44:21.196Z,13.38
2023-01-29T15:49:32.833Z,14.85
2023-01-29T15:54:36.064Z,13.73
2023-01-29T15:59:43.690Z,15.10
2023-01-29T16:04:46.308Z,13.30
2023-01-29T16:09:50.185Z,11.77
2023-01-29T16:14:52.730Z,10.35
2023-01-29T16:20:02.741Z,12.10
2023-01-29T16:25:06.766Z,13.82
2023-01-29T16:30:10.853Z,13.60
2023-01-29T16:35:17.425Z,12.38
2023-01-29T16:40:34.493Z,10.27
2023-01-29T16:45:36.635Z,13.40
2023-01-29T16:50:53.840Z,10.23
2023-01-29T16:56:03.500Z,10.38
2023-01-29T17:01:10.167Z,11.93
2023-01-29T17:06:18.763Z,15.30
2023-01-29T17:11:30.094Z,11.27
2023-01-29T17:16:48.992Z,12.90
2023-01-29T17:21:51.275Z,12.00
2023-01-29T17:26:53.948Z,12.85
2023-01-29T17:31:56.371Z,10.48
2023-01-29T17:36:58.577Z,11.35
2023-01-29T17:42:01.423Z,10.50
2023-01-29T17:47:05.439Z,10.13
2023-01-29T17:52:08.130Z,10.75
2023-01-29T17:57:13.828Z,8.43
2023-01-29T18:02:29.553Z,10.43
2023-01-29T18:12:33.965Z,10.82
2023-01-29T18:17:36.236Z,12.32
2023-01-29T18:22:38.344Z,10.48
2023-01-29T18:27:40.520Z,13.55
2023-01-29T18:32:42.595Z,11.43
2023-01-29T18:37:44.759Z,12.57
2023-01-29T18:42:47.566Z,12.43
2023-01-29T18:47:49.860Z,11.95
2023-01-29T18:52:55.594Z,12.35
2023-01-29T18:58:35.006Z,10.13
2023-01-29T19:03:19.999Z,12.68
2023-01-29T19:08:22.142Z,13.85
2023-01-29T19:13:24.283Z,10.13
2023-01-29T19:18:27.641Z,10.30
2023-01-29T19:23:29.733Z,10.60
2023-01-29T19:28:32.210Z,9.80
2023-01-29T19:33:35.041Z,10.00
2023-01-29T19:38:38.799Z,11.40
2023-01-29T19:43:42.122Z,11.63
2023-01-29T19:48:45.593Z,11.32
2023-01-29T19:53:47.783Z,10.00
2023-01-29T19:58:49.940Z,9.27
2023-01-29T20:03:52.259Z,9.57
2023-01-29T20:08:54.424Z,9.75
2023-01-29T20:13:56.874Z,11.68
2023-01-29T20:19:13.269Z,13.23
2023-01-29T20:24:16.834Z,19.00
2023-01-29T20:29:19.010Z,10.57
2023-01-29T20:34:21.230Z,13.50
2023-01-29T20:39:23.471Z,10.85
2023-01-29T20:44:26.093Z,11.43
2023-01-29T20:49:28.599Z,10.48
2023-01-29T20:54:33.289Z,11.93
2023-01-29T20:59:35.644Z,11.40
2023-01-29T21:04:37.785Z,11.80
2023-01-29T21:09:39.948Z,10.05
2023-01-29T21:14:42.177Z,12.25
2023-01-29T21:19:44.345Z,9.07
2023-01-29T21:24:46.447Z,9.48
2023-01-29T21:29:48.685Z,10.73
2023-01-29T21:34:52.629Z,16.88
2023-01-29T21:39:54.898Z,14.50
2023-01-29T21:44:57.235Z,12.43
2023-01-29T21:49:59.340Z,7.90
2023-01-29T21:55:01.417Z,8.07
2023-01-29T22:00:04.260Z,12.15
2023-01-29T22:05:18.264Z,9.50
2023-01-29T22:10:22.513Z,11.65
2023-01-29T22:15:24.751Z,8.90
2023-01-29T22:20:30.771Z,8.02
2023-01-29T22:25:34.151Z,5.35
2023-01-29T22:30:36.535Z,5.07
2023-01-29T22:35:38.920Z,6.45
2023-01-29T22:40:40.998Z,6.40
2023-01-29T22:45:43.103Z,6.82
2023-01-29T22:50:53.747Z,8.70
2023-01-29T22:55:56.009Z,7.20
2023-01-29T23:00:58.176Z,7.68
2023-01-29T23:06:00.491Z,8.52
2023-01-29T23:11:14.203Z,7.03
2023-01-29T23:16:18.450Z,8.55
2023-01-29T23:21:22.766Z,8.10
2023-01-29T23:26:43.595Z,6.90
2023-01-29T23:31:45.918Z,5.88
2023-01-29T23:36:48.256Z,7.63
2023-01-29T23:41:50.358Z,7.68
2023-01-29T23:46:52.721Z,7.72
2023-01-29T23:51:54.985Z,6.80
2023-01-29T23:56:57.093Z,8.25
